createdAt,value
2023-02-20T00:00:45.395Z,1008.21
2023-02-20T00:01:45.414Z,1008.17
2023-02-20T00:02:45.443Z,1008.14
2023-02-20T00:03:46.629Z,1008.09
2023-02-20T00:04:45.388Z,1008.17
2023-02-20T00:05:45.361Z,1008.18
2023-02-20T00:06:45.372Z,1008.17
2023-02-20T00:07:45.307Z,1008.14
2023-02-20T00:08:45.301Z,1008.10
2023-02-20T00:09:45.306Z,1008.10
2023-02-20T00:10:45.386Z,1008.13
2023-02-20T00:11:45.273Z,1008.12
2023-02-20T00:12:45.259Z,1008.20
2023-02-20T00:13:45.288Z,1008.18
2023-02-20T00:14:45.248Z,1008.14
2023-02-20T00:15:45.371Z,1008.15
2023-02-20T00:16:45.248Z,1008.13
2023-02-20T00:17:45.198Z,1008.17
2023-02-20T00:18:45.211Z,1008.18
2023-02-20T00:19:45.272Z,1008.14
2023-02-20T00:20:45.163Z,1008.07
2023-02-20T00:21:45.172Z,1008.04
2023-02-20T00:22:45.144Z,1008.03
2023-02-20T00:23:45.144Z,1008.06
2023-02-20T00:24:45.124Z,1008.04
2023-02-20T00:25:45.135Z,1008.09
2023-02-20T00:26:45.176Z,1008.05
2023-02-20T00:27:45.107Z,1008.08
2023-02-20T00:28:45.071Z,1008.05
2023-02-20T00:29:45.072Z,1008.00
2023-02-20T00:30:45.084Z,1008.06
2023-02-20T00:31:45.047Z,1008.08
2023-02-20T00:32:45.034Z,1008.01
2023-02-20T00:33:45.111Z,1008.02
2023-02-20T00:34:45.012Z,1008.03
2023-02-20T00:35:44.996Z,1008.01
2023-02-20T00:36:44.986Z,1008.06
2023-02-20T00:37:44.992Z,1008.09
2023-02-20T00:38:44.958Z,1008.06
2023-02-20T00:39:45.036Z,1008.09
2023-02-20T00:40:44.940Z,1008.04
2023-02-20T00:41:44.930Z,1008.03
2023-02-20T00:42:44.908Z,1008.06
2023-02-20T00:43:44.908Z,1008.09
2023-02-20T00:44:44.905Z,1008.04
2023-02-20T00:45:44.898Z,1008.04
2023-02-20T00:46:44.917Z,1008.09
2023-02-20T00:47:44.861Z,1008.08
2023-02-20T00:48:44.887Z,1008.05
2023-02-20T00:49:44.855Z,1008.11
2023-02-20T00:50:44.829Z,1008.04
2023-02-20T00:51:44.928Z,1008.08
2023-02-20T00:52:44.798Z,1008.04
2023-02-20T00:53:44.788Z,1008.06
2023-02-20T00:54:44.788Z,1008.08
2023-02-20T00:55:44.772Z,1008.06
2023-02-20T00:56:44.760Z,1008.06
2023-02-20T00:57:44.781Z,1008.02
2023-02-20T00:58:44.821Z,1007.99
2023-02-20T00:59:44.724Z,1007.98
2023-02-20T01:00:44.752Z,1008.02
2023-02-20T01:01:44.804Z,1007.95
2023-02-20T01:02:44.744Z,1007.98
2023-02-20T01:03:44.708Z,1008.01
2023-02-20T01:04:44.689Z,1008.06
2023-02-20T01:05:44.668Z,1008.02
2023-02-20T01:06:44.638Z,1008.03
2023-02-20T01:07:44.628Z,1007.99
2023-02-20T01:08:44.619Z,1007.91
2023-02-20T01:09:44.618Z,1008.03
2023-02-20T01:10:44.586Z,1007.92
2023-02-20T01:11:44.579Z,1007.99
2023-02-20T01:12:44.558Z,1008.03
2023-02-20T01:13:44.550Z,1008.06
2023-02-20T01:14:44.580Z,1008.03
2023-02-20T01:15:44.781Z,1008.03
2023-02-20T01:16:44.522Z,1007.94
2023-02-20T01:17:44.503Z,1007.91
2023-02-20T01:18:44.499Z,1007.98
2023-02-20T01:19:44.482Z,1007.96
2023-02-20T01:20:44.490Z,1007.93
2023-02-20T01:21:44.519Z,1007.90
2023-02-20T01:22:44.452Z,1007.87
2023-02-20T01:23:44.447Z,1007.91
2023-02-20T01:24:44.437Z,1007.93
2023-02-20T01:25:44.422Z,1007.92
2023-02-20T01:26:44.429Z,1007.91
2023-02-20T01:27:44.392Z,1007.91
2023-02-20T01:28:44.373Z,1007.84
2023-02-20T01:29:44.418Z,1007.89
2023-02-20T01:30:44.441Z,1007.86
2023-02-20T01:31:44.435Z,1007.89
2023-02-20T01:32:44.330Z,1007.90
2023-02-20T01:33:44.323Z,1007.89
2023-02-20T01:34:44.313Z,1007.87
2023-02-20T01:35:44.292Z,1007.89
2023-02-20T01:36:44.283Z,1007.91
2023-02-20T01:37:44.309Z,1007.91
2023-02-20T01:38:44.276Z,1007.91
2023-02-20T01:39:44.271Z,1007.89
2023-02-20T01:40:44.244Z,1007.93
2023-02-20T01:41:44.224Z,1007.90
2023-02-20T01:42:44.220Z,1007.96
2023-02-20T01:43:44.256Z,1007.92
2023-02-20T01:44:44.202Z,1007.87
2023-02-20T01:45:44.179Z,1007.79
2023-02-20T01:46:44.278Z,1007.77
2023-02-20T01:47:44.173Z,1007.74
2023-02-20T01:48:44.149Z,1007.78
2023-02-20T01:49:44.167Z,1007.78
2023-02-20T01:50:44.152Z,1007.71
2023-02-20T01:51:44.113Z,1007.64
2023-02-20T01:52:44.105Z,1007.66
2023-02-20T01:53:44.103Z,1007.68
2023-02-20T01:54:44.112Z,1007.65
2023-02-20T01:55:44.110Z,1007.65
2023-02-20T01:56:44.086Z,1007.66
2023-02-20T01:57:44.057Z,1007.68
2023-02-20T01:58:44.038Z,1007.68
2023-02-20T01:59:44.020Z,1007.62
2023-02-20T02:00:44.153Z,1007.67
2023-02-20T02:01:44.030Z,1007.66
2023-02-20T02:02:44.052Z,1007.63
2023-02-20T02:03:43.980Z,1007.60
2023-02-20T02:04:43.976Z,1007.55
2023-02-20T02:05:43.992Z,1007.62
2023-02-20T02:06:43.988Z,1007.65
2023-02-20T02:07:44.005Z,1007.64
2023-02-20T02:08:43.935Z,1007.61
2023-02-20T02:09:43.923Z,1007.69
2023-02-20T02:10:43.923Z,1007.58
2023-02-20T02:11:43.921Z,1007.61
2023-02-20T02:12:44.001Z,1007.64
2023-02-20T02:13:43.877Z,1007.62
2023-02-20T02:14:43.849Z,1007.66
2023-02-20T02:15:43.846Z,1007.65
2023-02-20T02:16:43.842Z,1007.69
2023-02-20T02:17:43.847Z,1007.65
2023-02-20T02:18:43.816Z,1007.66
2023-02-20T02:19:43.790Z,1007.65
2023-02-20T02:20:43.793Z,1007.68
2023-02-20T02:21:43.780Z,1007.66
2023-02-20T02:22:43.793Z,1007.65
2023-02-20T02:23:43.781Z,1007.61
2023-02-20T02:24:43.729Z,1007.70
2023-02-20T02:25:43.731Z,1007.64
2023-02-20T02:26:43.714Z,1007.69
2023-02-20T02:27:43.792Z,1007.75
2023-02-20T02:28:43.692Z,1007.73
2023-02-20T02:29:43.727Z,1007.76
2023-02-20T02:30:43.689Z,1007.72
2023-02-20T02:31:43.686Z,1007.61
2023-02-20T02:32:43.637Z,1007.64
2023-02-20T02:33:43.648Z,1007.59
2023-02-20T02:34:43.634Z,1007.61
2023-02-20T02:35:43.635Z,1007.64
2023-02-20T02:36:43.585Z,1007.63
2023-02-20T02:37:43.584Z,1007.64
2023-02-20T02:38:43.609Z,1007.58
2023-02-20T02:39:43.558Z,1007.52
2023-02-20T02:40:43.551Z,1007.53
2023-02-20T02:41:43.562Z,1007.47
2023-02-20T02:42:43.535Z,1007.48
2023-02-20T02:43:43.542Z,1007.45
2023-02-20T02:44:43.515Z,1007.43
2023-02-20T02:45:43.583Z,1007.46
2023-02-20T02:46:43.477Z,1007.42
2023-02-20T02:47:43.517Z,1007.46
2023-02-20T02:48:43.458Z,1007.44
2023-02-20T02:49:43.461Z,1007.40
2023-02-20T02:50:43.438Z,1007.38
2023-02-20T02:51:43.435Z,1007.37
2023-02-20T02:52:43.415Z,1007.36
2023-02-20T02:53:43.429Z,1007.37
2023-02-20T02:54:43.393Z,1007.40
2023-02-20T02:55:43.396Z,1007.41
2023-02-20T02:56:43.376Z,1007.29
2023-02-20T02:57:43.350Z,1007.27
2023-02-20T02:58:43.343Z,1007.18
2023-02-20T02:59:43.408Z,1007.26
2023-02-20T03:00:43.396Z,1007.23
2023-02-20T03:01:43.341Z,1007.23
2023-02-20T03:02:43.328Z,1007.24
2023-02-20T03:03:43.289Z,1007.27
2023-02-20T03:04:43.314Z,1007.27
2023-02-20T03:05:43.271Z,1007.32
2023-02-20T03:06:43.260Z,1007.30
2023-02-20T03:07:43.241Z,1007.36
2023-02-20T03:08:43.260Z,1007.25
2023-02-20T03:09:43.273Z,1007.28
2023-02-20T03:10:43.249Z,1007.23
2023-02-20T03:11:43.199Z,1007.22
2023-02-20T03:12:43.193Z,1007.28
2023-02-20T03:13:43.245Z,1007.26
2023-02-20T03:14:43.184Z,1007.24
2023-02-20T03:15:43.191Z,1007.27
2023-02-20T03:16:43.232Z,1007.29
2023-02-20T03:17:43.119Z,1007.31
2023-02-20T03:18:43.122Z,1007.34
2023-02-20T03:19:43.106Z,1007.35
2023-02-20T03:20:43.130Z,1007.34
2023-02-20T03:21:43.116Z,1007.35
2023-02-20T03:22:43.084Z,1007.39
2023-02-20T03:23:43.060Z,1007.32
2023-02-20T03:24:43.055Z,1007.39
2023-02-20T03:25:43.046Z,1007.43
2023-02-20T03:26:43.046Z,1007.45
2023-02-20T03:27:43.043Z,1007.46
2023-02-20T03:28:42.998Z,1007.38
2023-02-20T03:29:43.014Z,1007.45
2023-02-20T03:30:43.025Z,1007.40
2023-02-20T03:31:43.162Z,1007.45
2023-02-20T03:32:43.010Z,1007.41
2023-02-20T03:33:42.958Z,1007.40
2023-02-20T03:34:42.955Z,1007.37
2023-02-20T03:35:42.919Z,1007.42
2023-02-20T03:36:42.926Z,1007.39
2023-02-20T03:37:42.901Z,1007.44
2023-02-20T03:38:42.960Z,1007.45
2023-02-20T03:39:42.884Z,1007.40
2023-02-20T03:40:42.869Z,1007.46
2023-02-20T03:41:42.860Z,1007.40
2023-02-20T03:42:42.850Z,1007.39
2023-02-20T03:43:42.854Z,1007.41
2023-02-20T03:44:42.998Z,1007.46
2023-02-20T03:45:42.873Z,1007.47
2023-02-20T03:46:42.842Z,1007.39
2023-02-20T03:47:42.819Z,1007.39
2023-02-20T03:48:42.827Z,1007.36
2023-02-20T03:49:42.765Z,1007.43
2023-02-20T03:50:42.806Z,1007.43
2023-02-20T03:51:42.758Z,1007.39
2023-02-20T03:52:42.747Z,1007.37
2023-02-20T03:53:42.735Z,1007.38
2023-02-20T03:54:42.727Z,1007.36
2023-02-20T03:55:42.699Z,1007.33
2023-02-20T03:56:42.839Z,1007.32
2023-02-20T03:57:42.677Z,1007.31
2023-02-20T03:58:42.683Z,1007.26
2023-02-20T03:59:42.673Z,1007.31
2023-02-20T04:00:42.647Z,1007.22
2023-02-20T04:01:42.639Z,1007.24
2023-02-20T04:02:42.837Z,1007.27
2023-02-20T04:03:42.618Z,1007.22
2023-02-20T04:04:42.602Z,1007.20
2023-02-20T04:05:42.600Z,1007.17
2023-02-20T04:06:42.574Z,1007.24
2023-02-20T04:07:42.566Z,1007.24
2023-02-20T04:08:42.572Z,1007.21
2023-02-20T04:09:42.535Z,1007.27
2023-02-20T04:10:42.532Z,1007.22
2023-02-20T04:11:42.534Z,1007.27
2023-02-20T04:12:42.503Z,1007.23
2023-02-20T04:13:42.502Z,1007.22
2023-02-20T04:14:42.514Z,1007.18
2023-02-20T04:15:42.473Z,1007.34
2023-02-20T04:16:42.479Z,1007.31
2023-02-20T04:17:42.464Z,1007.34
2023-02-20T04:18:42.427Z,1007.34
2023-02-20T04:19:42.474Z,1007.31
2023-02-20T04:20:42.469Z,1007.38
2023-02-20T04:21:42.432Z,1007.37
2023-02-20T04:22:42.395Z,1007.28
2023-02-20T04:23:42.455Z,1007.23
2023-02-20T04:24:42.384Z,1007.28
2023-02-20T04:25:42.386Z,1007.34
2023-02-20T04:26:42.338Z,1007.36
2023-02-20T04:27:42.337Z,1007.34
2023-02-20T04:28:42.314Z,1007.28
2023-02-20T04:29:42.386Z,1007.32
2023-02-20T04:30:42.452Z,1007.29
2023-02-20T04:31:42.362Z,1007.23
2023-02-20T04:32:42.268Z,1007.25
2023-02-20T04:33:42.303Z,1007.33
2023-02-20T04:34:42.265Z,1007.27
2023-02-20T04:35:42.245Z,1007.20
2023-02-20T04:36:42.271Z,1007.20
2023-02-20T04:37:42.424Z,1007.20
2023-02-20T04:38:42.484Z,1007.13
2023-02-20T04:39:42.194Z,1007.14
2023-02-20T04:40:42.195Z,1007.19
2023-02-20T04:41:42.184Z,1007.14
2023-02-20T04:42:42.173Z,1007.18
2023-02-20T04:43:42.154Z,1007.17
2023-02-20T04:44:42.126Z,1007.10
2023-02-20T04:45:42.138Z,1007.11
2023-02-20T04:46:42.120Z,1007.13
2023-02-20T04:47:42.487Z,1007.19
2023-02-20T04:48:42.092Z,1007.14
2023-02-20T04:49:42.083Z,1007.15
2023-02-20T04:50:42.052Z,1007.13
2023-02-20T04:51:42.052Z,1007.15
2023-02-20T04:52:42.063Z,1007.16
2023-02-20T04:53:42.187Z,1007.08
2023-02-20T04:54:42.026Z,1007.16
2023-02-20T04:55:42.065Z,1007.19
2023-02-20T04:56:42.003Z,1007.20
2023-02-20T04:57:41.981Z,1007.11
2023-02-20T04:58:41.972Z,1007.09
2023-02-20T04:59:42.036Z,1007.15
2023-02-20T05:00:41.954Z,1007.14
2023-02-20T05:01:42.006Z,1007.14
2023-02-20T05:02:41.944Z,1007.11
2023-02-20T05:03:41.974Z,1007.10
2023-02-20T05:04:41.942Z,1007.06
2023-02-20T05:05:41.932Z,1007.09
2023-02-20T05:06:41.893Z,1007.03
2023-02-20T05:07:41.905Z,1007.03
2023-02-20T05:08:41.873Z,1007.08
2023-02-20T05:09:41.873Z,1007.05
2023-02-20T05:10:41.912Z,1007.02
2023-02-20T05:11:41.843Z,1007.07
2023-02-20T05:12:41.853Z,1007.00
2023-02-20T05:13:41.863Z,1007.00
2023-02-20T05:14:41.794Z,1007.04
2023-02-20T05:15:41.882Z,1006.98
2023-02-20T05:16:41.820Z,1007.05
2023-02-20T05:17:41.822Z,1007.05
2023-02-20T05:18:41.791Z,1006.94
2023-02-20T05:19:41.745Z,1007.10
2023-02-20T05:20:41.730Z,1006.93
2023-02-20T05:21:41.729Z,1007.08
2023-02-20T05:22:41.758Z,1007.00
2023-02-20T05:23:41.691Z,1007.15
2023-02-20T05:24:41.683Z,1007.11
2023-02-20T05:25:41.689Z,1007.17
2023-02-20T05:26:41.687Z,1007.17
2023-02-20T05:27:41.641Z,1007.14
2023-02-20T05:28:41.661Z,1007.12
2023-02-20T05:29:41.626Z,1007.16
2023-02-20T05:30:41.736Z,1007.15
2023-02-20T05:31:41.665Z,1007.15
2023-02-20T05:32:41.577Z,1007.17
2023-02-20T05:33:41.578Z,1007.04
2023-02-20T05:34:41.597Z,1007.04
2023-02-20T05:35:41.567Z,1007.05
2023-02-20T05:36:41.547Z,1007.03
2023-02-20T05:37:41.537Z,1006.98
2023-02-20T05:38:41.546Z,1007.01
2023-02-20T05:39:41.516Z,1006.99
2023-02-20T05:40:41.554Z,1007.02
2023-02-20T05:41:41.487Z,1007.03
2023-02-20T05:42:41.477Z,1006.95
2023-02-20T05:43:41.477Z,1006.99
2023-02-20T05:44:41.499Z,1007.06
2023-02-20T05:45:41.431Z,1007.04
2023-02-20T05:46:41.506Z,1007.10
2023-02-20T05:47:41.419Z,1007.09
2023-02-20T05:48:41.475Z,1007.01
2023-02-20T05:49:41.414Z,1007.00
2023-02-20T05:50:41.378Z,1006.97
2023-02-20T05:51:41.378Z,1006.96
2023-02-20T05:52:41.413Z,1006.95
2023-02-20T05:53:41.350Z,1006.92
2023-02-20T05:54:41.319Z,1006.87
2023-02-20T05:55:41.339Z,1006.87
2023-02-20T05:56:41.344Z,1006.88
2023-02-20T05:57:41.333Z,1006.89
2023-02-20T05:58:41.378Z,1006.79
2023-02-20T05:59:41.284Z,1006.79
2023-02-20T06:00:41.263Z,1006.75
2023-02-20T06:01:41.249Z,1006.77
2023-02-20T06:02:41.269Z,1006.71
2023-02-20T06:03:41.238Z,1006.74
2023-02-20T06:04:41.313Z,1006.70
2023-02-20T06:05:41.225Z,1006.71
2023-02-20T06:06:41.209Z,1006.72
2023-02-20T06:07:41.206Z,1006.73
2023-02-20T06:08:41.195Z,1006.66
2023-02-20T06:09:41.162Z,1006.73
2023-02-20T06:10:41.187Z,1006.66
2023-02-20T06:11:41.141Z,1006.66
2023-02-20T06:12:41.131Z,1006.65
2023-02-20T06:13:41.130Z,1006.69
2023-02-20T06:14:41.122Z,1006.70
2023-02-20T06:15:41.102Z,1006.72
2023-02-20T06:16:41.117Z,1006.74
2023-02-20T06:17:42.244Z,1006.71
2023-02-20T06:18:41.095Z,1006.69
2023-02-20T06:19:41.051Z,1006.66
2023-02-20T06:20:41.047Z,1006.62
2023-02-20T06:21:41.028Z,1006.65
2023-02-20T06:22:41.063Z,1006.63
2023-02-20T06:23:41.003Z,1006.63
2023-02-20T06:24:40.996Z,1006.70
2023-02-20T06:25:41.004Z,1006.65
2023-02-20T06:26:40.975Z,1006.63
2023-02-20T06:27:40.982Z,1006.64
2023-02-20T06:28:41.036Z,1006.70
2023-02-20T06:29:40.933Z,1006.75
2023-02-20T06:30:40.991Z,1006.65
2023-02-20T06:31:41.035Z,1006.63
2023-02-20T06:32:40.911Z,1006.73
2023-02-20T06:33:40.918Z,1006.67
2023-02-20T06:34:40.906Z,1006.69
2023-02-20T06:35:40.878Z,1006.68
2023-02-20T06:36:40.892Z,1006.70
2023-02-20T06:37:40.944Z,1006.70
2023-02-20T06:38:40.828Z,1006.71
2023-02-20T06:39:40.898Z,1006.71
2023-02-20T06:40:40.820Z,1006.67
2023-02-20T06:41:40.799Z,1006.67
2023-02-20T06:42:40.820Z,1006.72
2023-02-20T06:43:40.779Z,1006.69
2023-02-20T06:44:40.787Z,1006.69
2023-02-20T06:45:40.789Z,1006.68
2023-02-20T06:46:40.805Z,1006.71
2023-02-20T06:47:40.733Z,1006.67
2023-02-20T06:48:40.740Z,1006.66
2023-02-20T06:49:40.716Z,1006.76
2023-02-20T06:50:40.702Z,1006.78
2023-02-20T06:51:40.732Z,1006.78
2023-02-20T06:52:40.699Z,1006.71
2023-02-20T06:53:40.665Z,1006.73
2023-02-20T06:54:40.677Z,1006.81
2023-02-20T06:55:41.584Z,1006.79
2023-02-20T20:56:47.739Z,1002.81
2023-02-20T20:57:47.666Z,1002.81
2023-02-20T20:58:47.652Z,1002.73
2023-02-20T20:59:47.646Z,1002.70
2023-02-20T21:00:47.625Z,1002.72
2023-02-20T21:01:47.660Z,1002.72
2023-02-20T21:02:47.750Z,1002.68
2023-02-20T21:03:47.604Z,1002.63
2023-02-20T21:04:49.264Z,1002.69
2023-02-20T21:05:47.585Z,1002.75
2023-02-20T21:06:47.576Z,1002.77
2023-02-20T21:07:47.554Z,1002.79
2023-02-20T21:08:47.555Z,1002.79
2023-02-20T21:09:47.537Z,1002.86
2023-02-20T21:10:47.522Z,1002.81
2023-02-20T21:11:47.535Z,1002.74
2023-02-20T21:12:47.494Z,1002.72
2023-02-20T21:13:47.473Z,1002.71
2023-02-20T21:14:47.527Z,1002.77
2023-02-20T21:15:47.484Z,1002.81
2023-02-20T21:16:47.447Z,1002.87
2023-02-20T21:17:47.515Z,1002.87
2023-02-20T21:18:47.426Z,1002.85
2023-02-20T21:19:47.485Z,1002.84
2023-02-20T21:20:47.417Z,1002.83
2023-02-20T21:21:47.390Z,1002.78
2023-02-20T21:22:47.378Z,1002.79
2023-02-20T21:23:47.366Z,1002.77
2023-02-20T21:24:47.376Z,1002.75
2023-02-20T21:25:47.423Z,1002.76
2023-02-20T21:26:47.377Z,1002.71
2023-02-20T21:27:47.318Z,1002.86
2023-02-20T21:28:47.352Z,1002.83
2023-02-20T21:29:47.297Z,1002.75
2023-02-20T21:30:47.340Z,1002.82
2023-02-20T21:31:47.410Z,1002.81
2023-02-20T21:32:47.271Z,1002.85
2023-02-20T21:33:47.283Z,1002.79
2023-02-20T21:34:47.238Z,1002.86
2023-02-20T21:35:47.254Z,1002.89
2023-02-20T21:36:47.225Z,1002.84
2023-02-20T21:37:47.276Z,1002.86
2023-02-20T21:38:47.210Z,1002.81
2023-02-20T21:39:47.200Z,1002.87
2023-02-20T21:40:47.184Z,1002.80
2023-02-20T21:41:47.220Z,1002.80
2023-02-20T21:42:47.149Z,1002.78
2023-02-20T21:43:47.199Z,1002.75
2023-02-20T21:44:47.120Z,1002.74
2023-02-20T21:45:47.140Z,1002.77
2023-02-20T21:46:47.110Z,1002.79
2023-02-20T21:47:47.085Z,1002.78
2023-02-20T21:48:47.141Z,1002.79
2023-02-20T21:49:47.066Z,1002.73
2023-02-20T21:50:47.058Z,1002.78
2023-02-20T21:51:47.068Z,1002.77
2023-02-20T21:52:47.034Z,1002.77
2023-02-20T21:53:47.022Z,1002.77
2023-02-20T21:54:47.063Z,1002.77
2023-02-20T21:55:47.016Z,1002.88
2023-02-20T21:56:46.996Z,1002.81
2023-02-20T21:57:47.000Z,1002.77
2023-02-20T21:58:46.994Z,1002.74
2023-02-20T21:59:46.954Z,1002.69
2023-02-20T22:00:47.011Z,1002.77
2023-02-20T22:01:46.971Z,1002.76
2023-02-20T22:02:46.990Z,1002.71
2023-02-20T22:03:46.990Z,1002.68
2023-02-20T22:04:46.904Z,1002.74
2023-02-20T22:05:46.896Z,1002.73
2023-02-20T22:06:49.085Z,1002.70
2023-02-20T22:07:46.866Z,1002.72
2023-02-20T22:08:46.902Z,1002.61
2023-02-20T22:09:46.842Z,1002.69
2023-02-20T22:10:46.832Z,1002.63
2023-02-20T22:11:46.834Z,1002.62
2023-02-20T22:12:46.828Z,1002.65
2023-02-20T22:13:46.805Z,1002.64
2023-02-20T22:14:46.780Z,1002.66
2023-02-20T22:15:46.797Z,1002.67
2023-02-20T22:16:46.825Z,1002.64
2023-02-20T22:17:46.785Z,1002.66
2023-02-20T22:18:46.734Z,1002.66
2023-02-20T22:19:46.732Z,1002.64
2023-02-20T22:20:46.727Z,1002.61
2023-02-20T22:21:46.775Z,1002.66
2023-02-20T22:22:46.708Z,1002.65
2023-02-20T22:23:46.723Z,1002.60
2023-02-20T22:24:46.678Z,1002.61
2023-02-20T22:25:46.659Z,1002.65
2023-02-20T22:26:46.648Z,1002.66
2023-02-20T22:27:46.648Z,1002.67
2023-02-20T22:28:46.641Z,1002.69
2023-02-20T22:29:46.797Z,1002.64
2023-02-20T22:30:49.334Z,1002.68
2023-02-20T22:31:46.922Z,1002.64
2023-02-20T22:32:46.688Z,1002.62
2023-02-20T22:33:46.573Z,1002.60
2023-02-20T22:34:46.592Z,1002.67
2023-02-20T22:35:46.549Z,1002.59
2023-02-20T22:36:46.588Z,1002.65
2023-02-20T22:37:46.512Z,1002.63
2023-02-20T22:38:46.519Z,1002.60
2023-02-20T22:39:46.501Z,1002.59
2023-02-20T22:40:46.546Z,1002.61
2023-02-20T22:41:46.467Z,1002.57
2023-02-20T22:42:46.478Z,1002.55
2023-02-20T22:43:46.506Z,1002.55
2023-02-20T22:44:46.443Z,1002.58
2023-02-20T22:45:46.443Z,1002.59
2023-02-20T22:46:46.481Z,1002.63
2023-02-20T22:47:46.404Z,1002.53
2023-02-20T22:48:46.441Z,1002.44
2023-02-20T22:49:46.395Z,1002.45
2023-02-20T22:50:46.381Z,1002.40
2023-02-20T22:51:46.361Z,1002.45
2023-02-20T22:52:46.355Z,1002.38
2023-02-20T22:53:46.326Z,1002.45
2023-02-20T22:54:55.820Z,1002.43
2023-02-20T22:55:47.347Z,1002.40
2023-02-20T22:56:46.310Z,1002.37
2023-02-20T22:57:46.323Z,1002.33
2023-02-20T22:58:46.318Z,1002.37
2023-02-20T22:59:46.257Z,1002.33
2023-02-20T23:00:46.334Z,1002.39
2023-02-20T23:01:46.287Z,1002.33
2023-02-20T23:02:47.551Z,1002.36
2023-02-20T23:03:46.247Z,1002.36
2023-02-20T23:04:46.215Z,1002.38
2023-02-20T23:05:46.189Z,1002.43
2023-02-20T23:06:46.193Z,1002.37
2023-02-20T23:07:46.194Z,1002.39
2023-02-20T23:08:46.166Z,1002.39
2023-02-20T23:09:46.267Z,1002.39
2023-02-20T23:10:46.133Z,1002.42
2023-02-20T23:11:46.154Z,1002.49
2023-02-20T23:12:46.123Z,1002.50
2023-02-20T23:13:48.504Z,1002.40
2023-02-20T23:14:46.092Z,1002.37
2023-02-20T23:15:46.106Z,1002.40
2023-02-20T23:16:46.136Z,1002.36
2023-02-20T23:17:46.052Z,1002.34
2023-02-20T23:18:46.045Z,1002.32
2023-02-20T23:19:46.049Z,1002.25
2023-02-20T23:20:46.118Z,1002.33
2023-02-20T23:21:46.075Z,1002.31
2023-02-20T23:22:45.992Z,1002.28
2023-02-20T23:23:45.992Z,1002.28
2023-02-20T23:24:46.003Z,1002.21
2023-02-20T23:25:46.031Z,1002.19
2023-02-20T23:26:45.964Z,1002.19
2023-02-20T23:27:45.967Z,1002.20
2023-02-20T23:28:45.943Z,1002.24
2023-02-20T23:29:45.937Z,1002.19
2023-02-20T23:30:45.900Z,1002.21
2023-02-20T23:31:46.100Z,1002.25
2023-02-20T23:32:45.900Z,1002.32
2023-02-20T23:33:45.874Z,1002.28
2023-02-20T23:34:45.861Z,1002.29
2023-02-20T23:35:45.843Z,1002.26
2023-02-20T23:36:45.848Z,1002.28
2023-02-20T23:37:45.832Z,1002.32
2023-02-20T23:38:45.879Z,1002.42
2023-02-20T23:39:45.816Z,1002.40
2023-02-20T23:40:45.804Z,1002.43
2023-02-20T23:41:45.796Z,1002.48
2023-02-20T23:42:45.773Z,1002.46
2023-02-20T23:43:45.757Z,1002.44
2023-02-20T23:44:45.768Z,1002.42
2023-02-20T23:45:45.770Z,1002.47
2023-02-20T23:46:45.714Z,1002.43
2023-02-20T23:47:45.694Z,1002.48
2023-02-20T23:48:45.715Z,1002.51
2023-02-20T23:49:45.707Z,1002.45
2023-02-20T23:50:45.683Z,1002.49
2023-02-20T23:51:45.646Z,1002.49
2023-02-20T23:52:45.654Z,1002.49
2023-02-20T23:53:45.661Z,1002.46
2023-02-20T23:54:45.633Z,1002.48
2023-02-20T23:55:45.647Z,1002.53
2023-02-20T23:56:45.654Z,1002.51
2023-02-20T23:57:45.662Z,1002.48
2023-02-20T23:58:45.578Z,1002.50
2023-02-20T23:59:45.576Z,1002.47
